createdAt,value
2018-01-19T00:00:21.602Z,52.95
2018-01-19T00:02:48.143Z,53.46
2018-01-19T00:05:14.383Z,53.98
2018-01-19T00:07:40.582Z,54.20
2018-01-19T00:10:06.816Z,54.37
2018-01-19T00:12:33.048Z,54.63
2018-01-19T00:14:59.325Z,54.79
2018-01-19T00:17:25.550Z,54.93
2018-01-19T00:19:51.733Z,54.93
2018-01-19T00:22:18.093Z,54.96
2018-01-19T00:24:44.286Z,55.02
2018-01-19T00:27:10.505Z,55.16
2018-01-19T00:29:36.760Z,55.12
2018-01-19T00:32:02.994Z,55.15
2018-01-19T00:34:29.626Z,55.35
2018-01-19T00:36:55.811Z,55.38
2018-01-19T00:39:22.257Z,55.30
2018-01-19T00:41:48.487Z,55.35
2018-01-19T00:44:14.648Z,55.32
2018-01-19T00:46:40.854Z,55.46
2018-01-19T00:49:07.092Z,56.08
2018-01-19T00:51:33.285Z,56.37
2018-01-19T00:53:59.476Z,56.55
2018-01-19T00:56:25.746Z,56.65
2018-01-19T00:58:51.923Z,56.60
2018-01-19T01:01:18.107Z,56.39
2018-01-19T01:03:44.350Z,56.26
2018-01-19T01:06:10.556Z,56.13
2018-01-19T01:08:36.759Z,56.14
2018-01-19T01:11:03.052Z,56.04
2018-01-19T01:13:29.232Z,55.85
2018-01-19T01:15:55.430Z,55.65
2018-01-19T01:18:21.925Z,56.09
2018-01-19T01:20:48.099Z,55.88
2018-01-19T01:23:14.401Z,55.77
2018-01-19T01:25:40.914Z,55.59
2018-01-19T01:28:07.122Z,55.54
2018-01-19T01:30:33.433Z,55.36
2018-01-19T01:32:59.644Z,55.23
2018-01-19T01:35:25.800Z,55.25
2018-01-19T01:37:52.066Z,55.12
2018-01-19T01:40:18.273Z,55.18
2018-01-19T01:42:44.455Z,56.68
2018-01-19T01:45:10.726Z,56.82
2018-01-19T01:47:36.908Z,56.89
2018-01-19T01:50:03.406Z,56.58
2018-01-19T01:52:29.682Z,56.51
2018-01-19T01:54:55.917Z,56.50
2018-01-19T01:57:22.397Z,56.46
2018-01-19T01:59:48.634Z,56.57
2018-01-19T02:02:15.377Z,56.30
2018-01-19T02:04:41.896Z,56.26
2018-01-19T02:07:08.172Z,56.54
2018-01-19T02:09:34.360Z,57.17
2018-01-19T02:12:00.558Z,57.05
2018-01-19T02:14:26.806Z,56.54
2018-01-19T02:16:52.986Z,56.33
2018-01-19T02:19:19.231Z,56.12
2018-01-19T02:21:45.701Z,55.82
2018-01-19T02:24:11.982Z,55.90
2018-01-19T02:26:38.213Z,55.71
2018-01-19T02:29:04.720Z,55.84
2018-01-19T02:31:30.920Z,55.71
2018-01-19T02:33:57.185Z,55.86
2018-01-19T02:36:23.514Z,55.88
2018-01-19T02:38:49.741Z,55.87
2018-01-19T02:41:16.018Z,55.75
2018-01-19T02:43:42.269Z,55.61
2018-01-19T02:46:08.455Z,55.35
2018-01-19T02:48:35.027Z,55.55
2018-01-19T02:51:01.200Z,55.39
2018-01-19T02:53:27.396Z,55.48
2018-01-19T02:55:53.617Z,55.45
2018-01-19T02:58:19.796Z,55.33
2018-01-19T03:00:46.086Z,55.28
2018-01-19T03:03:12.356Z,55.46
2018-01-19T03:05:38.570Z,55.43
2018-01-19T03:08:04.793Z,55.72
2018-01-19T03:10:31.038Z,55.70
2018-01-19T03:12:57.516Z,55.55
2018-01-19T03:15:23.766Z,56.17
2018-01-19T03:17:50.016Z,56.67
2018-01-19T03:20:16.234Z,56.76
2018-01-19T03:22:42.403Z,56.77
2018-01-19T03:25:08.666Z,56.61
2018-01-19T03:27:34.890Z,56.74
2018-01-19T03:30:01.090Z,56.70
2018-01-19T03:32:27.325Z,56.96
2018-01-19T03:34:53.533Z,57.12
2018-01-19T03:37:19.853Z,56.79
2018-01-19T03:39:46.432Z,56.70
2018-01-19T03:42:12.649Z,56.42
2018-01-19T03:44:39.096Z,56.37
2018-01-19T03:47:05.352Z,56.33
2018-01-19T03:49:31.566Z,56.39
2018-01-19T03:51:57.739Z,56.24
2018-01-19T03:54:24.324Z,56.31
2018-01-19T03:56:50.516Z,56.13
2018-01-19T03:59:16.727Z,56.21
2018-01-19T04:01:43.195Z,56.18
2018-01-19T04:04:09.406Z,56.20
2018-01-19T04:06:35.579Z,56.06
2018-01-19T04:09:01.854Z,55.95
2018-01-19T04:11:28.018Z,55.86
2018-01-19T04:13:54.230Z,55.91
2018-01-19T04:16:20.449Z,55.72
2018-01-19T04:18:46.620Z,55.72
2018-01-19T04:21:13.057Z,55.88
2018-01-19T04:23:39.326Z,55.84
2018-01-19T04:26:05.531Z,55.83
2018-01-19T04:28:31.712Z,55.85
2018-01-19T04:30:57.944Z,55.85
2018-01-19T04:33:24.154Z,55.72
2018-01-19T04:35:50.373Z,56.31
2018-01-19T04:38:16.614Z,56.57
2018-01-19T04:40:42.906Z,56.61
2018-01-19T04:43:09.135Z,56.61
2018-01-19T04:45:35.378Z,56.56
2018-01-19T04:48:07.778Z,56.49
2018-01-19T04:50:33.999Z,56.63
2018-01-19T04:53:00.510Z,56.38
2018-01-19T04:55:26.725Z,56.07
2018-01-19T04:57:52.951Z,55.66
2018-01-19T05:00:19.206Z,55.68
2018-01-19T05:02:45.388Z,55.68
2018-01-19T05:05:11.663Z,55.58
2018-01-19T05:07:38.224Z,55.52
2018-01-19T05:10:04.446Z,55.44
2018-01-19T05:12:30.730Z,55.58
2018-01-19T05:14:56.928Z,55.50
2018-01-19T05:17:23.092Z,55.51
2018-01-19T05:19:49.417Z,55.48
2018-01-19T05:22:15.595Z,55.43
2018-01-19T05:24:42.135Z,55.47
2018-01-19T05:27:08.410Z,56.06
2018-01-19T05:29:34.635Z,55.35
2018-01-19T05:32:00.820Z,55.57
2018-01-19T05:34:27.067Z,55.43
2018-01-19T05:36:53.276Z,55.38
2018-01-19T05:39:19.517Z,55.33
2018-01-19T05:41:45.781Z,55.53
2018-01-19T05:44:11.976Z,55.61
2018-01-19T05:46:38.494Z,55.34
2018-01-19T05:49:04.760Z,55.05
2018-01-19T05:51:30.933Z,55.01
2018-01-19T05:53:57.489Z,54.99
2018-01-19T05:56:24.017Z,54.94
2018-01-19T05:58:50.226Z,54.93
2018-01-19T06:01:16.443Z,54.92
2018-01-19T06:03:42.618Z,54.86
2018-01-19T06:06:08.839Z,54.75
2018-01-19T06:08:35.115Z,54.64
2018-01-19T06:11:01.330Z,54.54
2018-01-19T06:13:27.512Z,56.29
2018-01-19T06:15:53.732Z,58.31
2018-01-19T06:18:19.900Z,57.02
2018-01-19T06:20:46.067Z,56.32
2018-01-19T06:23:12.301Z,55.94
2018-01-19T06:25:38.863Z,55.82
2018-01-19T06:28:05.090Z,55.71
2018-01-19T06:30:31.374Z,55.61
2018-01-19T06:32:57.545Z,55.48
2018-01-19T06:35:23.749Z,55.45
2018-01-19T06:37:49.965Z,55.38
2018-01-19T06:40:16.183Z,55.31
2018-01-19T06:42:42.451Z,55.27
2018-01-19T06:45:08.649Z,55.15
2018-01-19T06:47:34.828Z,55.03
2018-01-19T06:50:01.098Z,54.96
2018-01-19T06:52:27.528Z,55.09
2018-01-19T06:54:54.009Z,55.44
2018-01-19T06:57:20.241Z,55.58
2018-01-19T06:59:46.462Z,55.59
2018-01-19T07:02:12.695Z,55.58
2018-01-19T07:04:39.330Z,55.71
2018-01-19T07:07:05.647Z,55.77
2018-01-19T07:09:31.880Z,55.82
2018-01-19T07:11:58.205Z,55.72
2018-01-19T07:14:24.600Z,55.69
2018-01-19T07:16:50.816Z,55.56
2018-01-19T07:19:17.073Z,55.68
2018-01-19T07:21:43.294Z,55.18
2018-01-19T07:24:09.720Z,54.90
2018-01-19T07:26:36.013Z,54.90
2018-01-19T07:29:02.213Z,54.84
2018-01-19T07:31:28.429Z,54.79
2018-01-19T07:33:54.699Z,54.76
2018-01-19T07:36:20.930Z,54.74
2018-01-19T07:38:47.420Z,54.73
2018-01-19T07:41:14.092Z,54.68
2018-01-19T07:43:40.313Z,54.52
2018-01-19T07:46:06.629Z,54.46
2018-01-19T07:48:32.829Z,54.33
2018-01-19T07:50:59.052Z,54.22
2018-01-19T07:53:25.369Z,54.08
2018-01-19T07:55:51.777Z,53.93
2018-01-19T07:58:17.964Z,53.83
2018-01-19T08:00:44.177Z,53.76
2018-01-19T08:03:10.357Z,53.71
2018-01-19T08:05:36.606Z,53.62
2018-01-19T08:08:02.816Z,53.56
2018-01-19T08:10:29.005Z,53.46
2018-01-19T08:12:55.204Z,53.42
2018-01-19T08:15:21.478Z,53.41
2018-01-19T08:17:47.731Z,53.36
2018-01-19T08:20:13.954Z,53.34
2018-01-19T08:22:40.146Z,53.34
2018-01-19T08:25:06.667Z,53.29
2018-01-19T08:27:32.843Z,53.20
2018-01-19T08:29:59.034Z,53.15
2018-01-19T08:32:25.306Z,53.12
2018-01-19T08:34:51.505Z,53.04
2018-01-19T08:37:17.915Z,53.03
2018-01-19T08:39:44.455Z,52.94
2018-01-19T08:42:10.693Z,52.89
2018-01-19T08:44:36.932Z,52.82
2018-01-19T08:47:03.453Z,52.76
2018-01-19T08:49:29.681Z,52.68
2018-01-19T08:51:56.114Z,52.68
2018-01-19T08:54:22.357Z,52.59
2018-01-19T08:56:48.580Z,52.50
2018-01-19T08:59:14.767Z,52.48
2018-01-19T09:01:41.012Z,52.44
2018-01-19T09:04:07.211Z,52.40
2018-01-19T09:06:33.386Z,52.38
2018-01-19T09:09:02.680Z,52.31
2018-01-19T09:11:28.867Z,52.25
2018-01-19T09:13:55.078Z,52.21
2018-01-19T09:16:21.296Z,52.11
2018-01-19T09:18:47.525Z,52.06
2018-01-19T09:21:14.056Z,52.04
2018-01-19T09:23:40.262Z,51.94
2018-01-19T09:26:06.462Z,51.92
2018-01-19T09:28:32.817Z,51.86
2018-01-19T09:30:59.044Z,51.82
2018-01-19T09:33:25.229Z,51.73
2018-01-19T09:35:51.730Z,51.62
2018-01-19T09:38:17.943Z,51.63
2018-01-19T09:40:44.165Z,51.86
2018-01-19T09:43:10.505Z,51.71
2018-01-19T09:45:36.929Z,51.56
2018-01-19T09:48:03.132Z,51.51
2018-01-19T09:50:29.670Z,51.42
2018-01-19T09:52:55.897Z,51.36
2018-01-19T09:55:22.080Z,51.38
2018-01-19T09:57:48.698Z,51.31
2018-01-19T10:00:14.891Z,51.23
2018-01-19T10:02:41.119Z,51.16
2018-01-19T10:05:07.377Z,51.08
2018-01-19T10:07:33.610Z,51.07
2018-01-19T10:09:59.800Z,51.02
2018-01-19T10:12:26.065Z,51.11
2018-01-19T10:14:52.291Z,51.09
2018-01-19T10:17:18.544Z,51.10
2018-01-19T10:19:45.155Z,51.06
2018-01-19T10:22:11.368Z,51.04
2018-01-19T10:24:37.574Z,50.96
2018-01-19T10:27:03.917Z,50.94
2018-01-19T10:29:30.109Z,50.88
2018-01-19T10:31:56.319Z,50.84
2018-01-19T10:34:22.581Z,50.73
2018-01-19T10:36:48.980Z,50.70
2018-01-19T10:39:15.246Z,50.63
2018-01-19T10:41:41.562Z,50.62
2018-01-19T10:44:07.773Z,50.60
2018-01-19T10:46:34.388Z,50.58
2018-01-19T10:49:00.614Z,50.58
2018-01-19T10:51:27.142Z,50.60
2018-01-19T10:53:53.684Z,50.67
2018-01-19T10:56:19.907Z,50.68
2018-01-19T10:58:46.116Z,50.65
2018-01-19T11:01:12.311Z,50.62
2018-01-19T11:03:38.488Z,50.63
2018-01-19T11:06:04.781Z,50.66
2018-01-19T11:08:30.978Z,50.63
2018-01-19T11:10:57.172Z,50.68
2018-01-19T11:13:23.429Z,50.73
2018-01-19T11:15:49.648Z,50.78
2018-01-19T11:18:15.850Z,50.80
2018-01-19T11:20:42.115Z,50.88
2018-01-19T11:23:08.295Z,50.85
2018-01-19T11:25:34.489Z,50.81
2018-01-19T11:28:00.695Z,50.73
2018-01-19T11:30:26.875Z,50.64
2018-01-19T11:32:53.439Z,50.52
2018-01-19T11:35:19.969Z,50.49
2018-01-19T11:37:46.225Z,50.46
2018-01-19T11:40:12.392Z,50.44
2018-01-19T11:42:38.646Z,50.38
2018-01-19T11:45:05.002Z,50.41
2018-01-19T11:47:37.093Z,50.36
2018-01-19T11:50:03.339Z,50.31
2018-01-19T11:52:29.780Z,50.23
2018-01-19T11:54:56.350Z,50.12
2018-01-19T11:57:22.601Z,50.10
2018-01-19T11:59:48.821Z,49.91
2018-01-19T12:02:15.077Z,49.72
2018-01-19T12:04:41.369Z,49.61
2018-01-19T12:07:07.552Z,49.53
2018-01-19T12:09:33.769Z,49.56
2018-01-19T12:12:00.003Z,49.63
2018-01-19T12:14:26.228Z,49.75
2018-01-19T12:16:52.704Z,49.88
2018-01-19T12:19:18.918Z,49.87
2018-01-19T12:21:45.177Z,49.87
2018-01-19T12:24:11.390Z,49.88
2018-01-19T12:26:37.645Z,49.88
2018-01-19T12:29:04.262Z,49.91
2018-01-19T12:31:30.469Z,49.92
2018-01-19T12:33:56.690Z,49.88
2018-01-19T12:36:22.958Z,49.89
2018-01-19T12:38:49.182Z,49.84
2018-01-19T12:41:15.407Z,49.81
2018-01-19T12:43:41.727Z,49.90
2018-01-19T12:46:07.952Z,49.87
2018-01-19T12:48:34.393Z,49.82
2018-01-19T12:51:00.624Z,49.85
2018-01-19T12:53:26.850Z,49.93
2018-01-19T12:55:53.344Z,49.99
2018-01-19T12:58:19.921Z,50.00
2018-01-19T13:00:46.448Z,49.95
2018-01-19T13:03:12.624Z,49.95
2018-01-19T13:05:38.893Z,50.10
2018-01-19T13:08:05.177Z,50.02
2018-01-19T13:10:31.407Z,50.30
2018-01-19T13:12:58.006Z,50.42
2018-01-19T13:15:24.245Z,50.46
2018-01-19T13:17:50.429Z,50.26
2018-01-19T13:20:16.706Z,50.15
2018-01-19T13:22:42.949Z,50.16
2018-01-19T13:25:09.178Z,50.19
2018-01-19T13:27:35.486Z,50.18
2018-01-19T13:30:01.745Z,50.19
2018-01-19T13:32:27.926Z,50.41
2018-01-19T13:34:54.213Z,50.70
2018-01-19T13:37:20.480Z,50.64
2018-01-19T13:39:46.729Z,50.71
2018-01-19T13:42:13.141Z,50.58
2018-01-19T13:44:39.328Z,50.64
2018-01-19T13:47:05.679Z,50.67
2018-01-19T13:49:32.143Z,50.70
2018-01-19T13:51:58.330Z,50.72
2018-01-19T13:54:24.555Z,50.68
2018-01-19T13:56:50.769Z,50.66
2018-01-19T13:59:16.987Z,50.64
2018-01-19T14:01:43.244Z,50.62
2018-01-19T14:04:09.439Z,50.54
2018-01-19T14:06:35.651Z,50.58
2018-01-19T14:09:01.941Z,50.60
2018-01-19T14:11:28.130Z,50.61
2018-01-19T14:13:54.331Z,50.54
2018-01-19T14:16:20.568Z,50.53
2018-01-19T14:18:46.800Z,50.49
2018-01-19T14:21:13.002Z,50.47
2018-01-19T14:23:39.476Z,50.38
2018-01-19T14:26:05.686Z,50.39
2018-01-19T14:28:31.872Z,50.40
2018-01-19T14:30:58.100Z,50.34
2018-01-19T14:33:24.302Z,50.22
2018-01-19T14:35:50.522Z,50.21
2018-01-19T14:38:16.722Z,50.15
2018-01-19T14:40:43.235Z,50.18
2018-01-19T14:43:09.519Z,50.24
2018-01-19T14:45:35.835Z,50.28
2018-01-19T14:48:02.337Z,50.34
2018-01-19T14:50:28.559Z,50.43
2018-01-19T14:52:54.724Z,50.50
2018-01-19T14:55:20.899Z,50.51
2018-01-19T14:57:47.161Z,50.56
2018-01-19T15:00:13.682Z,50.61
2018-01-19T15:02:40.217Z,50.60
2018-01-19T15:05:06.419Z,50.57
2018-01-19T15:07:32.629Z,50.61
2018-01-19T15:09:58.845Z,50.64
2018-01-19T15:12:25.062Z,50.62
2018-01-19T15:14:51.366Z,50.63
2018-01-19T15:17:17.666Z,50.65
2018-01-19T15:19:43.848Z,50.70
2018-01-19T15:22:10.058Z,50.72
2018-01-19T15:24:36.327Z,50.71
2018-01-19T15:27:02.546Z,50.71
2018-01-19T15:29:28.754Z,50.72
2018-01-19T15:31:55.003Z,50.69
2018-01-19T15:34:21.154Z,50.66
2018-01-19T15:36:47.716Z,50.66
2018-01-19T15:39:13.989Z,50.69
2018-01-19T15:41:40.228Z,50.72
2018-01-19T15:44:06.469Z,50.75
2018-01-19T15:46:32.828Z,50.80
2018-01-19T15:48:59.050Z,50.77
2018-01-19T15:51:25.273Z,50.77
2018-01-19T15:53:51.518Z,50.75
2018-01-19T15:56:18.052Z,50.75
2018-01-19T15:58:44.327Z,50.72
2018-01-19T16:01:10.817Z,50.73
2018-01-19T16:03:37.030Z,50.76
2018-01-19T16:06:03.276Z,50.76
2018-01-19T16:08:29.491Z,50.81
2018-01-19T16:10:55.697Z,50.79
2018-01-19T16:13:21.958Z,50.82
2018-01-19T16:15:48.136Z,50.82
2018-01-19T16:18:14.330Z,50.84
2018-01-19T16:20:40.554Z,50.84
2018-01-19T16:23:06.788Z,50.85
2018-01-19T16:25:32.974Z,50.92
2018-01-19T16:27:59.190Z,50.89
2018-01-19T16:30:25.364Z,50.83
2018-01-19T16:32:51.590Z,50.88
2018-01-19T16:35:17.905Z,50.91
2018-01-19T16:37:44.445Z,50.96
2018-01-19T16:40:10.673Z,50.97
2018-01-19T16:42:36.918Z,50.90
2018-01-19T16:45:03.097Z,50.89
2018-01-19T16:47:29.330Z,50.90
2018-01-19T16:49:55.575Z,50.87
2018-01-19T16:52:21.751Z,50.86
2018-01-19T16:54:48.244Z,50.84
2018-01-19T16:57:14.477Z,50.86
2018-01-19T16:59:40.639Z,50.88
2018-01-19T17:02:06.844Z,50.90
2018-01-19T17:04:33.090Z,50.88
2018-01-19T17:06:59.542Z,50.87
2018-01-19T17:09:25.826Z,50.87
2018-01-19T17:11:52.057Z,50.84
2018-01-19T17:14:18.268Z,50.79
2018-01-19T17:16:44.626Z,50.75
2018-01-19T17:19:10.806Z,50.70
2018-01-19T17:21:37.264Z,50.70
2018-01-19T17:24:03.535Z,50.70
2018-01-19T17:26:29.825Z,50.70
2018-01-19T17:28:56.060Z,50.67
2018-01-19T17:31:22.291Z,50.69
2018-01-19T17:33:48.486Z,50.64
2018-01-19T17:36:14.709Z,50.67
2018-01-19T17:38:40.963Z,50.60
2018-01-19T17:41:07.198Z,50.66
2018-01-19T17:43:33.401Z,50.65
2018-01-19T17:45:59.685Z,50.66
2018-01-19T17:48:25.925Z,50.61
2018-01-19T17:50:52.105Z,50.58
2018-01-19T17:53:18.333Z,50.62
2018-01-19T17:55:44.529Z,50.65
2018-01-19T17:58:10.744Z,50.69
2018-01-19T18:00:36.997Z,50.64
2018-01-19T18:03:03.201Z,50.63
2018-01-19T18:05:29.781Z,50.62
2018-01-19T18:07:55.997Z,50.62
2018-01-19T18:10:22.189Z,50.66
2018-01-19T18:12:48.456Z,50.61
2018-01-19T18:15:15.006Z,50.62
2018-01-19T18:17:41.217Z,50.59
2018-01-19T18:20:07.482Z,50.61
2018-01-19T18:22:33.997Z,50.58
2018-01-19T18:25:00.227Z,50.57
2018-01-19T18:27:26.501Z,50.59
2018-01-19T18:29:52.715Z,50.56
2018-01-19T18:32:18.896Z,50.55
2018-01-19T18:34:45.105Z,50.56
2018-01-19T18:37:11.293Z,50.57
2018-01-19T18:39:37.517Z,50.56
2018-01-19T18:42:03.711Z,50.55
2018-01-19T18:44:29.935Z,50.54
2018-01-19T18:46:56.205Z,50.56
2018-01-19T18:49:22.413Z,50.60
2018-01-19T18:51:48.592Z,50.60
2018-01-19T18:54:14.862Z,50.56
2018-01-19T18:56:41.082Z,50.58
2018-01-19T18:59:07.260Z,50.59
2018-01-19T19:01:33.507Z,50.56
2018-01-19T19:03:59.672Z,50.55
2018-01-19T19:06:25.921Z,50.56
2018-01-19T19:08:52.127Z,50.51
2018-01-19T19:11:18.343Z,50.47
2018-01-19T19:13:44.849Z,50.50
2018-01-19T19:16:11.041Z,50.51
2018-01-19T19:18:37.250Z,50.48
2018-01-19T19:21:03.775Z,50.43
2018-01-19T19:23:29.981Z,50.47
2018-01-19T19:25:56.151Z,50.48
2018-01-19T19:28:22.769Z,50.48
2018-01-19T19:30:48.990Z,50.46
2018-01-19T19:33:15.241Z,50.47
2018-01-19T19:35:41.502Z,50.43
2018-01-19T19:38:07.706Z,50.39
2018-01-19T19:40:33.970Z,50.36
2018-01-19T19:43:01.369Z,50.37
2018-01-19T19:45:27.900Z,50.35
2018-01-19T19:47:54.092Z,50.38
2018-01-19T19:50:20.403Z,50.35
2018-01-19T19:52:46.578Z,50.38
2018-01-19T19:55:12.777Z,50.42
2018-01-19T19:57:39.073Z,50.43
2018-01-19T20:00:05.582Z,50.40
2018-01-19T20:02:37.882Z,50.35
2018-01-19T20:05:04.119Z,50.33
2018-01-19T20:07:30.345Z,50.37
2018-01-19T20:09:56.844Z,50.42
2018-01-19T20:12:23.070Z,50.37
2018-01-19T20:14:49.258Z,50.31
2018-01-19T20:17:15.478Z,50.36
2018-01-19T20:19:41.686Z,50.36
2018-01-19T20:22:07.882Z,50.34
2018-01-19T20:24:34.132Z,50.29
2018-01-19T20:27:00.296Z,50.28
2018-01-19T20:29:26.505Z,50.29
2018-01-19T20:31:52.993Z,50.34
2018-01-19T20:34:19.205Z,50.31
2018-01-19T20:36:45.413Z,50.30
2018-01-19T20:39:11.646Z,50.29
2018-01-19T20:41:37.909Z,50.31
2018-01-19T20:44:04.187Z,50.32
2018-01-19T20:46:30.399Z,50.33
2018-01-19T20:48:56.707Z,50.31
2018-01-19T20:51:22.979Z,50.27
2018-01-19T20:53:49.193Z,50.18
2018-01-19T20:56:15.383Z,50.19
2018-01-19T20:58:41.654Z,50.22
2018-01-19T21:01:07.832Z,50.18
2018-01-19T21:03:34.078Z,50.10
2018-01-19T21:06:00.303Z,50.12
2018-01-19T21:08:26.503Z,50.14
2018-01-19T21:10:52.708Z,50.09
2018-01-19T21:13:18.935Z,50.19
2018-01-19T21:15:45.404Z,50.19
2018-01-19T21:18:11.579Z,50.20
2018-01-19T21:20:38.174Z,50.19
2018-01-19T21:23:04.703Z,50.15
2018-01-19T21:25:30.906Z,50.15
2018-01-19T21:27:57.150Z,50.14
2018-01-19T21:30:23.426Z,50.18
2018-01-19T21:32:49.613Z,50.16
2018-01-19T21:35:15.780Z,50.15
2018-01-19T21:37:42.054Z,50.09
2018-01-19T21:40:08.280Z,50.11
2018-01-19T21:42:34.684Z,50.09
2018-01-19T21:45:00.916Z,50.14
2018-01-19T21:47:27.136Z,50.11
2018-01-19T21:49:53.317Z,50.12
2018-01-19T21:52:19.579Z,50.13
2018-01-19T21:54:45.756Z,50.18
2018-01-19T21:57:11.964Z,50.17
2018-01-19T21:59:38.231Z,50.22
2018-01-19T22:02:04.409Z,50.23
2018-01-19T22:04:30.580Z,50.21
2018-01-19T22:06:56.849Z,50.17
2018-01-19T22:09:23.059Z,50.11
2018-01-19T22:11:49.277Z,50.15
2018-01-19T22:14:15.809Z,50.08
2018-01-19T22:16:42.009Z,50.08
2018-01-19T22:19:08.218Z,50.12
2018-01-19T22:21:34.495Z,50.05
2018-01-19T22:24:00.681Z,50.00
2018-01-19T22:26:26.861Z,50.04
2018-01-19T22:28:53.123Z,50.03
2018-01-19T22:31:19.306Z,50.06
2018-01-19T22:33:45.528Z,50.11
2018-01-19T22:36:11.791Z,50.11
2018-01-19T22:38:38.020Z,50.10
2018-01-19T22:41:04.238Z,50.11
2018-01-19T22:43:30.514Z,50.07
2018-01-19T22:45:56.728Z,50.04
2018-01-19T22:48:23.200Z,50.09
2018-01-19T22:50:49.458Z,50.09
2018-01-19T22:53:15.676Z,50.08
2018-01-19T22:55:41.851Z,50.03
2018-01-19T22:58:08.078Z,50.05
2018-01-19T23:00:34.294Z,50.02
2018-01-19T23:03:00.506Z,49.99
2018-01-19T23:05:26.735Z,50.04
2018-01-19T23:07:53.230Z,50.06
2018-01-19T23:10:25.405Z,50.03
2018-01-19T23:12:51.937Z,50.00
2018-01-19T23:15:18.125Z,50.03
2018-01-19T23:17:44.304Z,50.00
2018-01-19T23:20:10.574Z,49.99
2018-01-19T23:22:36.772Z,50.02
2018-01-19T23:25:03.280Z,50.03
2018-01-19T23:27:29.535Z,50.07
2018-01-19T23:29:55.709Z,50.09
2018-01-19T23:32:21.883Z,50.11
2018-01-19T23:34:48.401Z,50.04
2018-01-19T23:37:14.607Z,50.00
2018-01-19T23:39:40.830Z,49.99
2018-01-19T23:42:07.100Z,49.98
2018-01-19T23:44:33.310Z,50.00
2018-01-19T23:46:59.505Z,50.00
2018-01-19T23:49:25.785Z,49.98
2018-01-19T23:51:52.022Z,50.02
2018-01-19T23:54:18.533Z,49.96
2018-01-19T23:56:44.767Z,49.90
2018-01-19T23:59:10.990Z,49.84
